Terminal Aerodrome Forecast
Issued by NWS Jackson, MS

Home | Current Version | Previous Version | Text Only | Print | Product List | Glossary On
Versions: 1 2 3 4 5 6 7 8 9 10 11 12 13 14 15
000
FTUS44 KJAN 301813 RRA
TAFGWO
TAF
KGWO 301813Z 3018/0118 05012G20KT P6SM -RA SCT050 OVC100
     FM302300 15010KT P6SM BKN060
     FM010300 18006KT P6SM VCSH BKN040
     FM010800 VRB04KT 5SM BR OVC015
     FM011700 22006KT P6SM SCT015 OVC050=

USA.gov is the U.S. government's official web portal to all federal, state and local government web resources and services.